createdAt,value
2022-08-16T00:01:42.454Z,20.55
2022-08-16T00:04:13.120Z,20.56
2022-08-16T00:06:41.804Z,20.55
2022-08-16T00:09:12.297Z,20.55
2022-08-16T00:11:44.368Z,20.51
2022-08-16T00:14:19.444Z,20.50
2022-08-16T00:17:00.880Z,20.47
2022-08-16T00:19:41.585Z,20.48
2022-08-16T00:22:13.452Z,20.46
2022-08-16T00:24:46.991Z,20.42
2022-08-16T00:27:19.251Z,20.36
2022-08-16T00:29:47.476Z,20.33
2022-08-16T00:32:17.741Z,20.30
2022-08-16T00:34:53.272Z,20.28
2022-08-16T00:37:56.645Z,20.22
2022-08-16T00:40:34.107Z,20.12
2022-08-16T00:43:12.273Z,20.09
2022-08-16T00:46:22.378Z,20.09
2022-08-16T00:49:04.477Z,20.07
2022-08-16T00:51:32.521Z,20.04
2022-08-16T00:54:02.184Z,20.02
2022-08-16T00:56:55.993Z,19.96
2022-08-16T00:59:27.588Z,19.93
2022-08-16T01:01:55.889Z,19.92
2022-08-16T01:04:30.026Z,19.85
2022-08-16T01:07:03.207Z,19.85
2022-08-16T01:09:34.618Z,19.80
2022-08-16T01:12:10.694Z,19.75
2022-08-16T01:14:50.348Z,19.65
2022-08-16T01:17:24.220Z,19.58
2022-08-16T01:19:59.240Z,19.52
2022-08-16T01:23:13.173Z,19.36
2022-08-16T01:25:59.787Z,19.36
2022-08-16T01:28:45.327Z,19.34
2022-08-16T01:31:17.447Z,19.37
2022-08-16T01:33:45.571Z,19.38
2022-08-16T01:36:18.974Z,19.37
2022-08-16T01:38:57.251Z,19.38
2022-08-16T01:41:31.335Z,19.38
2022-08-16T01:44:03.321Z,19.39
2022-08-16T01:46:48.017Z,19.34
2022-08-16T01:49:43.543Z,19.31
2022-08-16T01:52:29.945Z,19.30
2022-08-16T01:55:20.969Z,19.30
2022-08-16T01:57:53.323Z,19.28
2022-08-16T02:00:28.968Z,19.28
2022-08-16T02:02:59.878Z,19.25
2022-08-16T02:05:30.829Z,19.18
2022-08-16T02:08:04.682Z,19.12
2022-08-16T02:13:19.285Z,19.13
2022-08-16T02:15:57.309Z,19.12
2022-08-16T02:18:25.228Z,19.13
2022-08-16T02:20:54.572Z,19.11
2022-08-16T02:23:23.437Z,19.10
2022-08-16T02:25:54.011Z,19.08
2022-08-16T02:28:25.264Z,19.07
2022-08-16T02:30:57.042Z,19.04
2022-08-16T02:33:43.692Z,18.98
2022-08-16T02:36:48.265Z,18.97
2022-08-16T02:39:09.635Z,18.95
2022-08-16T02:41:41.499Z,18.92
2022-08-16T02:44:13.837Z,18.85
2022-08-16T02:46:50.698Z,18.81
2022-08-16T02:49:58.684Z,18.76
2022-08-16T02:52:17.136Z,18.74
2022-08-16T02:54:55.280Z,18.75
2022-08-16T02:57:26.244Z,18.77
2022-08-16T02:59:55.228Z,18.79
2022-08-16T03:02:32.066Z,18.80
2022-08-16T03:05:06.741Z,18.83
2022-08-16T03:07:37.077Z,18.85
2022-08-16T03:10:09.613Z,18.81
2022-08-16T03:12:56.203Z,18.75
2022-08-16T03:15:28.420Z,18.73
2022-08-16T03:17:57.719Z,18.72
2022-08-16T03:20:31.852Z,18.70
2022-08-16T03:23:01.769Z,18.69
2022-08-16T03:25:41.071Z,18.70
2022-08-16T03:28:17.301Z,18.68
2022-08-16T03:30:48.799Z,18.64
2022-08-16T03:33:18.014Z,18.60
2022-08-16T03:36:20.033Z,18.56
2022-08-16T03:38:53.283Z,18.50
2022-08-16T03:41:25.623Z,18.49
2022-08-16T03:44:01.472Z,18.49
2022-08-16T03:46:47.702Z,18.48
2022-08-16T03:49:23.697Z,18.47
2022-08-16T03:52:05.418Z,18.44
2022-08-16T03:54:35.990Z,18.43
2022-08-16T03:57:05.469Z,18.43
2022-08-16T03:59:39.522Z,18.43
2022-08-16T04:02:22.256Z,18.40
2022-08-16T04:04:54.168Z,18.42
2022-08-16T04:07:24.780Z,18.41
2022-08-16T04:09:54.193Z,18.39
2022-08-16T04:12:53.479Z,18.40
2022-08-16T04:15:17.054Z,18.37
2022-08-16T04:17:57.987Z,18.35
2022-08-16T04:20:33.714Z,18.35
2022-08-16T04:23:10.305Z,18.33
2022-08-16T04:25:41.171Z,18.32
2022-08-16T04:28:51.769Z,18.25
2022-08-16T04:30:59.759Z,18.13
2022-08-16T04:33:28.940Z,18.05
2022-08-16T04:36:04.780Z,18.06
2022-08-16T04:38:34.756Z,18.09
2022-08-16T04:41:04.064Z,18.14
2022-08-16T04:43:38.291Z,18.23
2022-08-16T04:47:01.293Z,18.28
2022-08-16T04:49:04.479Z,18.38
2022-08-16T04:51:36.028Z,18.44
2022-08-16T04:54:04.714Z,18.49
2022-08-16T04:56:35.700Z,18.48
2022-08-16T04:59:11.952Z,18.52
2022-08-16T05:01:57.927Z,18.61
2022-08-16T05:04:30.012Z,18.69
2022-08-16T05:07:01.125Z,18.76
2022-08-16T05:10:02.167Z,18.84
2022-08-16T05:12:30.490Z,18.87
2022-08-16T05:15:01.843Z,18.91
2022-08-16T05:17:32.998Z,19.03
2022-08-16T05:20:35.582Z,19.10
2022-08-16T05:22:58.586Z,19.18
2022-08-16T05:25:40.771Z,19.22
2022-08-16T05:28:15.480Z,19.27
2022-08-16T05:30:50.318Z,19.36
2022-08-16T05:33:23.660Z,19.44
2022-08-16T05:35:55.489Z,19.54
2022-08-16T05:38:39.992Z,19.67
2022-08-16T05:41:13.963Z,19.77
2022-08-16T05:43:47.681Z,19.89
2022-08-16T05:46:29.581Z,19.99
2022-08-16T05:49:09.116Z,20.11
2022-08-16T05:51:46.013Z,20.25
2022-08-16T05:54:20.234Z,20.35
2022-08-16T05:56:56.210Z,20.46
2022-08-16T05:59:27.376Z,20.60
2022-08-16T06:01:58.110Z,20.74
2022-08-16T06:04:37.566Z,20.84
2022-08-16T06:07:25.008Z,20.99
2022-08-16T06:10:06.213Z,21.14
2022-08-16T06:12:36.296Z,21.27
2022-08-16T06:15:16.555Z,21.42
2022-08-16T06:17:46.697Z,21.57
2022-08-16T06:20:35.613Z,21.71
2022-08-16T06:23:17.632Z,21.88
2022-08-16T06:25:57.189Z,22.02
2022-08-16T06:28:36.148Z,22.14
2022-08-16T06:31:12.035Z,22.31
2022-08-16T06:33:44.919Z,22.47
2022-08-16T06:36:16.956Z,22.60
2022-08-16T06:38:59.875Z,22.73
2022-08-16T06:41:54.051Z,22.88
2022-08-16T06:44:40.170Z,23.07
2022-08-16T06:47:24.685Z,23.26
2022-08-16T06:50:22.053Z,23.35
2022-08-16T06:53:01.177Z,23.56
2022-08-16T06:55:38.577Z,23.77
2022-08-16T06:58:22.029Z,23.93
2022-08-16T07:01:02.094Z,24.19
2022-08-16T07:03:55.172Z,24.42
2022-08-16T07:06:26.543Z,24.61
2022-08-16T07:08:58.167Z,24.81
2022-08-16T07:11:45.533Z,24.98
2022-08-16T07:14:24.757Z,25.21
2022-08-16T07:16:57.931Z,25.39
2022-08-16T07:19:33.699Z,25.61
2022-08-16T07:22:39.199Z,25.86
2022-08-16T07:25:23.133Z,26.12
2022-08-16T07:27:52.741Z,26.38
2022-08-16T07:30:38.869Z,26.60
2022-08-16T07:33:51.802Z,26.80
2022-08-16T07:36:09.937Z,27.00
2022-08-16T07:38:44.139Z,27.24
2022-08-16T07:41:14.657Z,27.45
2022-08-16T07:43:52.473Z,27.61
2022-08-16T07:46:38.384Z,27.76
2022-08-16T07:49:33.918Z,27.92
2022-08-16T07:52:18.910Z,28.07
2022-08-16T07:54:53.111Z,28.23
2022-08-16T07:57:24.246Z,28.39
2022-08-16T07:59:57.127Z,28.51
2022-08-16T08:02:27.146Z,28.69
2022-08-16T08:04:57.791Z,28.84
2022-08-16T08:07:28.677Z,29.02
2022-08-16T08:10:02.393Z,29.17
2022-08-16T08:12:35.850Z,29.37
2022-08-16T08:15:10.331Z,29.46
2022-08-16T08:17:43.592Z,29.59
2022-08-16T08:20:28.179Z,29.64
2022-08-16T08:23:01.309Z,29.75
2022-08-16T08:25:54.403Z,29.89
2022-08-16T08:28:26.926Z,30.04
2022-08-16T08:31:03.849Z,30.16
2022-08-16T08:33:43.837Z,30.35
2022-08-16T08:36:25.618Z,30.35
2022-08-16T08:39:13.165Z,30.39
2022-08-16T08:41:46.608Z,30.47
2022-08-16T08:44:28.835Z,30.55
2022-08-16T08:47:09.295Z,30.69
2022-08-16T08:49:46.278Z,30.63
2022-08-16T08:52:35.193Z,30.58
2022-08-16T08:55:12.697Z,30.48
2022-08-16T08:57:47.580Z,30.36
2022-08-16T09:00:50.129Z,30.19
2022-08-16T09:03:20.214Z,30.01
2022-08-16T09:05:51.771Z,29.97
2022-08-16T09:08:22.218Z,30.10
2022-08-16T09:11:03.182Z,30.18
2022-08-16T09:13:36.029Z,30.22
2022-08-16T09:16:04.483Z,30.26
2022-08-16T09:18:35.568Z,30.27
2022-08-16T09:21:09.349Z,30.30
2022-08-16T09:23:39.485Z,30.30
2022-08-16T09:26:44.272Z,30.18
2022-08-16T09:29:14.882Z,30.17
2022-08-16T09:31:47.578Z,30.15
2022-08-16T09:34:21.689Z,30.21
2022-08-16T09:36:54.702Z,30.22
2022-08-16T09:39:22.580Z,30.23
2022-08-16T09:41:53.231Z,30.36
2022-08-16T09:45:12.659Z,30.39
2022-08-16T09:47:16.098Z,30.46
2022-08-16T09:49:43.886Z,30.45
2022-08-16T09:52:18.804Z,30.43
2022-08-16T09:54:50.093Z,30.42
2022-08-16T09:57:18.595Z,30.41
2022-08-16T09:59:46.474Z,30.35
2022-08-16T10:02:26.783Z,30.44
2022-08-16T10:05:00.091Z,30.40
2022-08-16T10:07:44.459Z,30.42
2022-08-16T10:10:18.900Z,30.54
2022-08-16T10:13:16.434Z,30.65
2022-08-16T10:15:54.841Z,30.78
2022-08-16T10:19:01.350Z,30.94
2022-08-16T10:21:14.050Z,31.06
2022-08-16T10:23:44.997Z,31.06
2022-08-16T10:27:17.190Z,31.10
2022-08-16T10:29:04.813Z,31.22
2022-08-16T10:31:44.331Z,31.10
2022-08-16T10:34:31.773Z,31.12
2022-08-16T10:37:02.628Z,31.24
2022-08-16T10:39:41.107Z,31.18
2022-08-16T10:42:13.227Z,31.15
2022-08-16T10:44:42.502Z,31.18
2022-08-16T10:47:11.715Z,31.18
2022-08-16T10:49:39.670Z,31.11
2022-08-16T10:52:18.317Z,31.17
2022-08-16T10:57:35.365Z,31.47
2022-08-16T11:00:21.459Z,31.54
2022-08-16T11:02:57.909Z,31.71
2022-08-16T11:08:23.578Z,31.61
2022-08-16T11:14:11.004Z,31.54
2022-08-16T11:19:30.186Z,31.61
2022-08-16T11:22:22.660Z,31.73
2022-08-16T11:25:11.389Z,31.80
2022-08-16T11:27:35.832Z,31.82
2022-08-16T11:30:09.130Z,31.75
2022-08-16T11:32:41.205Z,31.85
2022-08-16T11:38:47.266Z,31.77
2022-08-16T11:41:09.594Z,31.62
2022-08-16T11:43:41.903Z,31.51
2022-08-16T11:46:43.372Z,31.60
2022-08-16T11:49:11.239Z,31.74
2022-08-16T11:51:45.591Z,31.75
2022-08-16T11:54:20.886Z,31.85
2022-08-16T11:56:57.314Z,31.92
2022-08-16T11:59:29.382Z,31.84
2022-08-16T12:02:00.231Z,31.81
2022-08-16T12:04:51.714Z,31.84
2022-08-16T12:07:23.890Z,31.91
2022-08-16T12:09:54.156Z,31.84
2022-08-16T12:12:23.628Z,31.98
2022-08-16T12:15:00.023Z,32.08
2022-08-16T12:17:32.590Z,32.17
2022-08-16T12:20:18.834Z,32.13
2022-08-16T12:22:47.698Z,32.34
2022-08-16T12:25:20.056Z,32.37
2022-08-16T12:27:51.366Z,32.37
2022-08-16T12:30:33.724Z,32.22
2022-08-16T12:33:09.822Z,32.02
2022-08-16T12:35:40.617Z,31.98
2022-08-16T12:38:41.302Z,32.09
2022-08-16T12:40:58.389Z,32.31
2022-08-16T12:43:26.462Z,32.42
2022-08-16T12:45:59.967Z,32.61
2022-08-16T12:48:52.575Z,32.55
2022-08-16T12:51:25.281Z,32.45
2022-08-16T12:54:04.576Z,32.44
2022-08-16T12:56:38.879Z,32.31
2022-08-16T12:59:14.755Z,32.20
2022-08-16T13:01:50.489Z,32.00
2022-08-16T13:04:20.778Z,31.73
2022-08-16T13:06:52.052Z,31.52
2022-08-16T13:09:26.770Z,31.46
2022-08-16T13:12:09.655Z,31.53
2022-08-16T13:14:42.924Z,31.62
2022-08-16T13:17:19.179Z,31.62
2022-08-16T13:20:09.442Z,31.64
2022-08-16T13:22:43.714Z,31.82
2022-08-16T13:25:21.358Z,31.94
2022-08-16T13:28:15.074Z,32.03
2022-08-16T13:30:50.614Z,32.12
2022-08-16T13:33:30.245Z,32.22
2022-08-16T13:36:00.968Z,32.15
2022-08-16T13:38:37.647Z,32.27
2022-08-16T13:41:10.322Z,32.37
2022-08-16T13:43:40.270Z,32.36
2022-08-16T13:46:08.887Z,32.44
2022-08-16T13:48:44.292Z,32.42
2022-08-16T13:51:18.099Z,32.50
2022-08-16T13:53:59.987Z,32.67
2022-08-16T13:56:38.926Z,32.78
2022-08-16T13:59:20.962Z,32.90
2022-08-16T14:01:55.460Z,32.95
2022-08-16T14:04:31.272Z,33.03
2022-08-16T14:07:02.124Z,33.09
2022-08-16T14:09:32.104Z,33.10
2022-08-16T14:12:06.950Z,33.15
2022-08-16T14:14:37.656Z,33.14
2022-08-16T14:17:09.694Z,33.09
2022-08-16T14:19:44.734Z,33.03
2022-08-16T14:22:31.509Z,33.08
2022-08-16T14:25:18.632Z,33.02
2022-08-16T14:27:47.962Z,33.15
2022-08-16T14:30:21.079Z,33.25
2022-08-16T14:32:51.194Z,33.28
2022-08-16T14:35:36.424Z,33.16
2022-08-16T14:38:13.452Z,32.94
2022-08-16T14:40:54.796Z,32.77
2022-08-16T14:43:25.849Z,32.68
2022-08-16T14:45:57.998Z,32.59
2022-08-16T14:48:26.726Z,32.58
2022-08-16T14:50:56.124Z,32.49
2022-08-16T14:53:27.494Z,32.33
2022-08-16T14:56:05.350Z,32.26
2022-08-16T14:58:36.803Z,32.24
2022-08-16T15:01:09.767Z,32.22
2022-08-16T15:03:38.610Z,32.31
2022-08-16T15:06:13.081Z,32.44
2022-08-16T15:08:42.397Z,32.60
2022-08-16T15:11:13.053Z,32.65
2022-08-16T15:13:41.490Z,32.78
2022-08-16T15:16:09.453Z,32.88
2022-08-16T15:18:37.316Z,32.88
2022-08-16T15:21:08.629Z,32.92
2022-08-16T15:23:36.600Z,32.96
2022-08-16T15:26:08.630Z,33.04
2022-08-16T15:28:38.029Z,33.10
2022-08-16T15:31:10.524Z,33.03
2022-08-16T15:33:49.941Z,32.99
2022-08-16T15:36:21.389Z,32.91
2022-08-16T15:39:02.178Z,32.76
2022-08-16T15:41:39.119Z,32.61
2022-08-16T15:44:21.157Z,32.45
2022-08-16T15:47:02.421Z,32.27
2022-08-16T15:49:37.565Z,32.07
2022-08-16T15:52:29.718Z,31.96
2022-08-16T15:55:23.574Z,31.82
2022-08-16T15:57:58.960Z,31.69
2022-08-16T16:00:27.198Z,31.60
2022-08-16T16:03:08.654Z,31.57
2022-08-16T16:05:41.518Z,31.50
2022-08-16T16:08:13.538Z,31.45
2022-08-16T16:10:54.708Z,31.38
2022-08-16T16:13:23.800Z,31.32
2022-08-16T16:15:55.867Z,31.26
2022-08-16T16:18:26.170Z,31.21
2022-08-16T16:21:00.296Z,31.17
2022-08-16T16:23:34.744Z,31.13
2022-08-16T16:26:05.967Z,31.06
2022-08-16T16:29:06.291Z,31.05
2022-08-16T16:31:24.517Z,30.99
2022-08-16T16:33:56.030Z,30.97
2022-08-16T16:36:29.349Z,30.95
2022-08-16T16:38:57.763Z,30.91
2022-08-16T16:41:28.343Z,30.84
2022-08-16T16:44:00.374Z,30.74
2022-08-16T16:46:43.039Z,30.55
2022-08-16T16:49:14.522Z,30.46
2022-08-16T16:51:44.704Z,30.32
2022-08-16T16:54:22.236Z,30.19
2022-08-16T16:56:58.611Z,30.08
2022-08-16T16:59:28.182Z,30.01
2022-08-16T17:02:41.591Z,29.86
2022-08-16T17:04:48.376Z,29.67
2022-08-16T17:07:23.898Z,29.48
2022-08-16T17:09:53.839Z,29.35
2022-08-16T17:12:24.925Z,29.15
2022-08-16T17:14:59.658Z,29.08
2022-08-16T17:17:29.644Z,28.97
2022-08-16T17:19:57.747Z,28.88
2022-08-16T17:22:32.871Z,28.71
2022-08-16T17:25:01.640Z,28.66
2022-08-16T17:27:33.976Z,28.56
2022-08-16T17:30:15.046Z,28.46
2022-08-16T17:32:50.298Z,28.31
2022-08-16T17:35:34.687Z,28.15
2022-08-16T17:38:06.511Z,28.03
2022-08-16T17:40:47.536Z,27.87
2022-08-16T17:43:44.390Z,27.70
2022-08-16T17:46:41.329Z,27.63
2022-08-16T17:49:04.513Z,27.52
2022-08-16T17:51:34.386Z,27.46
2022-08-16T17:54:03.822Z,27.32
2022-08-16T17:56:31.996Z,27.18
2022-08-16T17:58:59.865Z,27.10
2022-08-16T18:01:29.065Z,27.02
2022-08-16T18:04:06.661Z,26.89
2022-08-16T18:06:39.910Z,26.70
2022-08-16T18:09:09.620Z,26.52
2022-08-16T18:11:40.646Z,26.40
2022-08-16T18:14:11.170Z,26.17
2022-08-16T18:16:40.888Z,25.97
2022-08-16T18:19:10.535Z,25.92
2022-08-16T18:21:57.617Z,25.87
2022-08-16T18:24:29.119Z,25.86
2022-08-16T18:26:56.997Z,25.90
2022-08-16T18:29:38.443Z,26.00
2022-08-16T18:32:07.542Z,26.02
2022-08-16T18:34:35.787Z,26.05
2022-08-16T18:37:04.089Z,26.03
2022-08-16T18:39:33.592Z,26.08
2022-08-16T18:42:14.197Z,25.96
2022-08-16T18:44:45.049Z,25.90
2022-08-16T18:47:12.938Z,25.86
2022-08-16T18:49:40.775Z,25.86
2022-08-16T18:52:08.939Z,25.92
2022-08-16T18:55:02.172Z,25.93
2022-08-16T18:57:24.629Z,25.94
2022-08-16T18:59:52.527Z,25.77
2022-08-16T19:02:56.082Z,25.68
2022-08-16T19:05:22.499Z,25.63
2022-08-16T19:07:51.747Z,25.62
2022-08-16T19:10:23.844Z,25.63
2022-08-16T19:12:52.976Z,25.57
2022-08-16T19:15:26.021Z,25.51
2022-08-16T19:17:54.022Z,25.51
2022-08-16T19:20:26.220Z,25.49
2022-08-16T19:23:05.792Z,25.52
2022-08-16T19:25:48.361Z,25.42
2022-08-16T19:28:51.066Z,25.23
2022-08-16T19:31:20.570Z,25.03
2022-08-16T19:33:55.518Z,25.01
2022-08-16T19:36:31.775Z,25.00
2022-08-16T19:39:09.273Z,24.98
2022-08-16T19:41:45.993Z,24.96
2022-08-16T19:44:14.246Z,24.82
2022-08-16T19:46:45.073Z,24.79
2022-08-16T19:49:16.432Z,24.68
2022-08-16T19:51:48.779Z,24.57
2022-08-16T19:54:18.008Z,24.53
2022-08-16T19:56:45.855Z,24.45
2022-08-16T19:59:19.798Z,24.33
2022-08-16T20:01:56.988Z,24.23
2022-08-16T20:04:27.033Z,24.12
2022-08-16T20:06:55.822Z,24.00
2022-08-16T20:09:24.519Z,24.00
2022-08-16T20:11:54.571Z,23.96
2022-08-16T20:14:25.603Z,23.91
2022-08-16T20:16:59.913Z,23.82
2022-08-16T20:19:36.107Z,23.71
2022-08-16T20:22:35.867Z,23.61
2022-08-16T20:25:12.481Z,23.60
2022-08-16T20:27:42.015Z,23.61
2022-08-16T20:30:17.131Z,23.57
2022-08-16T20:32:47.034Z,23.52
2022-08-16T20:35:20.831Z,23.46
2022-08-16T20:37:48.796Z,23.28
2022-08-16T20:40:29.625Z,23.09
2022-08-16T20:43:15.589Z,22.95
2022-08-16T20:45:46.409Z,22.87
2022-08-16T20:48:15.294Z,22.86
2022-08-16T20:50:43.987Z,22.85
2022-08-16T20:53:12.199Z,22.87
2022-08-16T20:55:41.884Z,22.87
2022-08-16T20:58:09.790Z,22.90
2022-08-16T21:00:38.311Z,22.92
2022-08-16T21:03:15.080Z,22.88
2022-08-16T21:05:43.992Z,22.84
2022-08-16T21:08:51.591Z,22.74
2022-08-16T21:11:03.064Z,22.61
2022-08-16T21:13:32.859Z,22.57
2022-08-16T21:16:02.674Z,22.58
2022-08-16T21:18:30.616Z,22.60
2022-08-16T21:20:58.479Z,22.65
2022-08-16T21:23:26.578Z,22.74
2022-08-16T21:25:59.278Z,22.82
2022-08-16T21:28:42.727Z,22.86
2022-08-16T21:31:18.189Z,22.88
2022-08-16T21:33:55.579Z,22.83
2022-08-16T21:36:34.977Z,22.79
2022-08-16T21:39:07.293Z,22.75
2022-08-16T21:41:36.304Z,22.71
2022-08-16T21:44:05.164Z,22.64
2022-08-16T21:46:34.079Z,22.57
2022-08-16T21:49:02.120Z,22.49
2022-08-16T21:51:29.887Z,22.41
2022-08-16T21:53:57.877Z,22.35
2022-08-16T21:56:25.923Z,22.31
2022-08-16T21:58:54.133Z,22.32
2022-08-16T22:01:23.678Z,22.30
2022-08-16T22:04:01.711Z,22.32
2022-08-16T22:06:41.515Z,22.26
2022-08-16T22:09:12.300Z,22.32
2022-08-16T22:11:40.261Z,22.38
2022-08-16T22:14:08.260Z,22.43
2022-08-16T22:16:39.653Z,22.46
2022-08-16T22:19:08.115Z,22.48
2022-08-16T22:21:36.302Z,22.44
2022-08-16T22:24:05.170Z,22.42
2022-08-16T22:26:42.324Z,22.35
2022-08-16T22:29:14.044Z,22.31
2022-08-16T22:31:44.035Z,22.26
2022-08-16T22:36:58.869Z,22.10
2022-08-16T22:39:27.153Z,22.09
2022-08-16T22:41:55.228Z,22.11
2022-08-16T22:44:23.619Z,22.13
2022-08-16T22:46:51.527Z,22.16
2022-08-16T22:49:19.503Z,22.18
2022-08-16T22:51:47.355Z,22.16
2022-08-16T22:54:44.254Z,22.09
2022-08-16T22:57:05.489Z,22.01
2022-08-16T22:59:33.940Z,21.91
2022-08-16T23:02:05.847Z,21.87
2022-08-16T23:04:35.076Z,21.76
2022-08-16T23:07:05.540Z,21.69
2022-08-16T23:09:33.384Z,21.58
2022-08-16T23:12:04.120Z,21.58
2022-08-16T23:14:32.945Z,21.58
2022-08-16T23:17:01.384Z,21.60
2022-08-16T23:19:29.729Z,21.60
2022-08-16T23:21:58.171Z,21.59
2022-08-16T23:24:27.324Z,21.56
2022-08-16T23:26:55.156Z,21.52
2022-08-16T23:29:26.256Z,21.47
2022-08-16T23:32:10.980Z,21.37
2022-08-16T23:34:38.955Z,21.31
2022-08-16T23:37:07.609Z,21.23
2022-08-16T23:39:36.081Z,21.15
2022-08-16T23:42:15.512Z,21.12
2022-08-16T23:45:04.649Z,21.07
2022-08-16T23:47:32.476Z,21.10
2022-08-16T23:50:03.882Z,21.10
2022-08-16T23:52:42.336Z,21.06
2022-08-16T23:55:20.563Z,21.00
2022-08-16T23:57:49.247Z,20.97
